Time;durP1;ratioP1;P1;durP2;ratioP2;P2;SDS_P1;SDS_P2;PMS_P1;PMS_P2;Temp;Humidity;BMP_temperature;BMP_pressure;BME280_temperature;BME280_humidity;BME280_pressure;Samples;Min_cycle;Max_cycle;Signal;HPM_P1;HPM_P2
2022/08/21 00:00:20;;;;;;;13.30;7.07;;;15.40;79.50;;;;;;5071315;28;20448;-69
2022/08/21 00:02:56;;;;;;;13.35;7.30;;;15.40;79.50;;;;;;5068259;28;20017;-69
2022/08/21 00:05:24;;;;;;;11.02;6.45;;;15.30;79.50;;;;;;5067600;28;20017;-69
2022/08/21 00:07:50;;;;;;;15.35;6.80;;;15.30;79.50;;;;;;5070563;28;20059;-69
2022/08/21 00:10:18;;;;;;;17.23;7.97;;;15.30;79.50;;;;;;5066913;28;20035;-69
2022/08/21 00:12:45;;;;;;;20.27;7.47;;;15.30;79.50;;;;;;5068467;28;20060;-69
2022/08/21 00:15:15;;;;;;;13.15;6.72;;;15.30;79.60;;;;;;5069514;28;20482;-69
2022/08/21 00:17:42;;;;;;;16.15;7.00;;;15.20;79.60;;;;;;5065688;28;20044;-69
2022/08/21 00:20:10;;;;;;;20.13;8.43;;;15.30;79.70;;;;;;5066525;28;20044;-69
2022/08/21 00:22:37;;;;;;;18.90;7.20;;;15.30;79.90;;;;;;5065920;28;20136;-69
2022/08/21 00:25:07;;;;;;;16.17;7.68;;;15.30;79.90;;;;;;5069105;28;20021;-69
2022/08/21 00:27:34;;;;;;;14.60;6.88;;;15.20;80.00;;;;;;5061311;28;20024;-69
2022/08/21 00:30:01;;;;;;;16.27;8.10;;;15.20;80.00;;;;;;5067425;28;20024;-69
2022/08/21 00:32:28;;;;;;;10.95;6.47;;;15.20;80.00;;;;;;5065438;28;20044;-68
2022/08/21 00:34:55;;;;;;;14.32;7.47;;;15.20;80.10;;;;;;5065460;28;20016;-69
2022/08/21 00:37:22;;;;;;;15.80;7.25;;;15.20;80.50;;;;;;5065402;28;20029;-69
2022/08/21 00:39:49;;;;;;;26.98;8.15;;;15.20;81.00;;;;;;5067663;28;20035;-69
2022/08/21 00:42:16;;;;;;;14.15;7.85;;;15.20;81.10;;;;;;5066635;28;20021;-69
2022/08/21 00:44:44;;;;;;;21.63;8.35;;;15.20;81.10;;;;;;5065827;28;20029;-69
2022/08/21 00:47:11;;;;;;;14.27;6.85;;;15.20;81.20;;;;;;5064785;28;20024;-69
2022/08/21 00:49:39;;;;;;;12.60;6.72;;;15.20;81.30;;;;;;5069866;28;20024;-69
2022/08/21 00:52:09;;;;;;;15.57;7.65;;;15.20;81.30;;;;;;5065234;28;20044;-69
2022/08/21 00:54:39;;;;;;;13.52;6.70;;;15.20;81.40;;;;;;5067387;28;20017;-69
2022/08/21 00:57:15;;;;;;;16.67;7.38;;;15.20;81.40;;;;;;5066233;28;20048;-69
2022/08/21 00:59:47;;;;;;;16.23;7.90;;;15.20;81.20;;;;;;5069081;28;20029;-69
2022/08/21 01:02:14;;;;;;;33.85;8.63;;;15.20;81.10;;;;;;5064605;28;20066;-69
2022/08/21 01:04:40;;;;;;;11.20;5.70;;;15.20;81.00;;;;;;5064427;28;20017;-68
2022/08/21 01:07:08;;;;;;;13.60;5.97;;;15.20;81.30;;;;;;5068550;28;20029;-69
2022/08/21 01:09:35;;;;;;;18.13;6.43;;;15.20;81.20;;;;;;5068154;28;20025;-68
2022/08/21 01:12:02;;;;;;;8.10;4.28;;;15.20;81.20;;;;;;5066686;28;20033;-69
2022/08/21 01:14:30;;;;;;;14.93;4.32;;;15.20;81.10;;;;;;5068061;28;20039;-69
2022/08/21 01:16:58;;;;;;;10.55;4.82;;;15.20;80.90;;;;;;5063392;28;20021;-68
2022/08/21 01:19:28;;;;;;;7.78;4.05;;;15.20;80.80;;;;;;5063087;28;20025;-68
2022/08/21 01:21:55;;;;;;;18.23;7.30;;;15.20;80.70;;;;;;5063955;28;20044;-68
2022/08/21 01:24:22;;;;;;;12.63;4.75;;;15.20;80.60;;;;;;5068817;28;20681;-68
2022/08/21 01:26:51;;;;;;;13.30;4.57;;;15.20;80.70;;;;;;5065130;28;20450;-68
2022/08/21 01:29:26;;;;;;;8.55;3.75;;;15.20;80.80;;;;;;5068479;28;20495;-68
2022/08/21 01:31:53;;;;;;;13.55;5.38;;;15.20;80.80;;;;;;5063746;28;20040;-68
2022/08/21 01:34:19;;;;;;;15.77;5.57;;;15.10;80.80;;;;;;5070105;28;20016;-67
2022/08/21 01:36:47;;;;;;;29.45;6.20;;;15.20;80.90;;;;;;5063505;28;20035;-67
2022/08/21 01:39:15;;;;;;;12.30;4.03;;;15.10;81.30;;;;;;5067587;28;20024;-67
2022/08/21 01:41:41;;;;;;;16.48;4.82;;;15.20;81.60;;;;;;5064504;28;20550;-68
2022/08/21 01:44:08;;;;;;;18.15;5.00;;;15.20;81.50;;;;;;5064554;28;20021;-67
2022/08/21 01:46:35;;;;;;;12.85;4.32;;;15.10;81.50;;;;;;5068299;28;20024;-67
2022/08/21 01:49:01;;;;;;;12.07;5.03;;;15.20;81.60;;;;;;5065932;28;20029;-67
2022/08/21 01:51:28;;;;;;;13.05;5.38;;;15.20;81.70;;;;;;5067344;28;20079;-67
2022/08/21 01:53:54;;;;;;;14.40;5.13;;;15.20;81.70;;;;;;5063255;28;20504;-68
2022/08/21 01:56:22;;;;;;;19.30;5.82;;;15.20;81.70;;;;;;5064451;28;20111;-68
2022/08/21 01:58:48;;;;;;;24.73;6.95;;;15.20;81.70;;;;;;5062820;28;20036;-68
2022/08/21 02:01:15;;;;;;;20.10;6.85;;;15.20;81.60;;;;;;5062542;28;20012;-68
2022/08/21 02:03:42;;;;;;;37.05;7.43;;;15.20;81.80;;;;;;5066722;28;20046;-67
2022/08/21 02:06:14;;;;;;;15.93;5.78;;;15.20;82.20;;;;;;5066952;28;20044;-67
2022/08/21 02:08:41;;;;;;;14.90;4.78;;;15.20;83.10;;;;;;5063311;28;20133;-67
2022/08/21 02:11:07;;;;;;;20.35;5.55;;;15.20;83.50;;;;;;5059546;28;20020;-68
2022/08/21 02:13:34;;;;;;;18.33;5.82;;;15.20;83.70;;;;;;5065690;28;20041;-68
2022/08/21 02:16:00;;;;;;;16.55;5.10;;;15.20;83.90;;;;;;5065727;28;20081;-67
2022/08/21 02:18:27;;;;;;;18.73;8.90;;;15.30;84.00;;;;;;5064853;28;20032;-67
2022/08/21 02:20:53;;;;;;;12.57;4.97;;;15.30;84.30;;;;;;5065506;28;20037;-67
2022/08/21 02:23:20;;;;;;;14.02;5.85;;;15.30;84.40;;;;;;5064055;28;20028;-67
2022/08/21 02:25:46;;;;;;;11.60;6.90;;;15.20;84.40;;;;;;5068596;28;20170;-68
2022/08/21 02:28:15;;;;;;;19.35;7.15;;;15.20;83.80;;;;;;5064423;28;20027;-67
2022/08/21 02:30:46;;;;;;;14.77;6.47;;;15.20;83.40;;;;;;5067147;28;20020;-67
2022/08/21 02:33:13;;;;;;;19.48;6.35;;;15.20;83.20;;;;;;5065584;28;20372;-67
2022/08/21 02:35:42;;;;;;;16.38;6.95;;;15.20;83.10;;;;;;5058538;28;20466;-67
2022/08/21 02:38:13;;;;;;;16.45;6.80;;;15.20;83.70;;;;;;5067433;28;20024;-68
2022/08/21 02:40:41;;;;;;;13.43;7.00;;;15.20;84.00;;;;;;5060332;28;20029;-68
2022/08/21 02:43:08;;;;;;;15.63;6.70;;;15.20;84.20;;;;;;5062389;28;20016;-68
2022/08/21 02:45:36;;;;;;;17.13;8.07;;;15.20;84.40;;;;;;5064658;28;20052;-68
2022/08/21 02:48:06;;;;;;;18.73;7.35;;;15.20;84.20;;;;;;5065086;28;20495;-67
2022/08/21 02:50:36;;;;;;;19.27;6.57;;;15.20;83.80;;;;;;5066535;28;20025;-67
2022/08/21 02:53:06;;;;;;;13.30;6.80;;;15.10;84.00;;;;;;5062063;28;20063;-67
2022/08/21 02:55:34;;;;;;;11.68;6.85;;;15.10;83.40;;;;;;5063406;28;20372;-67
2022/08/21 02:58:03;;;;;;;13.70;6.78;;;15.10;83.30;;;;;;5062483;28;20032;-67
2022/08/21 03:00:31;;;;;;;26.33;10.52;;;15.10;84.30;;;;;;5063802;28;20032;-67
2022/08/21 03:02:58;;;;;;;23.42;10.27;;;15.10;84.10;;;;;;5061753;28;20711;-67
2022/08/21 03:05:28;;;;;;;20.55;11.98;;;15.10;84.10;;;;;;5064184;28;20415;-68
2022/08/21 03:07:55;;;;;;;15.10;7.53;;;15.10;84.00;;;;;;5063592;28;20479;-68
2022/08/21 03:10:22;;;;;;;14.50;7.78;;;15.10;83.70;;;;;;5066018;28;20491;-68
2022/08/21 03:12:49;;;;;;;15.35;5.80;;;15.10;83.40;;;;;;5068005;28;20033;-68
2022/08/21 03:15:18;;;;;;;11.85;6.13;;;15.10;83.30;;;;;;5066084;28;20096;-67
2022/08/21 03:17:46;;;;;;;10.00;6.68;;;15.10;83.10;;;;;;5064913;28;20027;-67
2022/08/21 03:20:15;;;;;;;10.00;6.32;;;15.10;83.00;;;;;;5064391;28;20036;-68
2022/08/21 03:22:41;;;;;;;11.40;6.05;;;15.10;82.90;;;;;;5063828;28;20021;-68
2022/08/21 03:25:10;;;;;;;11.95;6.93;;;15.10;82.90;;;;;;5067143;28;20027;-67
2022/08/21 03:27:37;;;;;;;13.55;6.15;;;15.10;82.80;;;;;;5068924;28;20020;-67
2022/08/21 03:30:06;;;;;;;10.88;6.75;;;15.10;82.90;;;;;;5069453;28;20029;-68
2022/08/21 03:32:35;;;;;;;20.73;7.85;;;15.10;82.90;;;;;;5067279;28;20071;-67
2022/08/21 03:35:02;;;;;;;20.88;12.93;;;15.00;82.80;;;;;;5068336;28;20078;-67
2022/08/21 03:37:29;;;;;;;25.10;14.38;;;15.00;83.20;;;;;;5069365;28;20093;-67
2022/08/21 03:39:56;;;;;;;15.68;10.30;;;15.10;83.60;;;;;;5069663;28;20024;-67
2022/08/21 03:42:23;;;;;;;12.00;7.15;;;15.00;83.80;;;;;;5069554;28;20432;-67
2022/08/21 03:44:49;;;;;;;15.23;8.10;;;15.00;83.70;;;;;;5069841;28;20033;-67
2022/08/21 03:47:16;;;;;;;10.90;6.85;;;15.00;83.70;;;;;;5068314;28;20024;-68
2022/08/21 03:49:42;;;;;;;10.35;7.43;;;15.00;84.10;;;;;;5069144;28;20021;-68
2022/08/21 03:52:09;;;;;;;13.95;6.35;;;15.00;83.50;;;;;;5068417;28;20134;-68
2022/08/21 03:54:36;;;;;;;21.90;6.60;;;15.00;84.10;;;;;;5064696;28;20021;-68
2022/08/21 03:57:03;;;;;;;16.27;6.90;;;15.00;83.70;;;;;;5068024;28;20037;-67
2022/08/21 03:59:29;;;;;;;10.82;7.03;;;15.00;83.70;;;;;;5066190;28;20379;-68
2022/08/21 04:01:58;;;;;;;12.98;7.28;;;15.00;83.60;;;;;;5068086;28;20027;-67
2022/08/21 04:04:26;;;;;;;13.23;7.57;;;15.00;83.40;;;;;;5068235;28;20032;-68
2022/08/21 04:06:53;;;;;;;11.48;7.15;;;15.00;83.20;;;;;;5067457;28;20021;-67
2022/08/21 04:09:19;;;;;;;10.38;6.90;;;15.00;82.90;;;;;;5067815;28;20547;-67
2022/08/21 04:11:46;;;;;;;12.63;8.00;;;15.00;82.70;;;;;;5068001;28;20063;-67
2022/08/21 04:14:14;;;;;;;12.05;6.22;;;15.00;82.60;;;;;;5068467;28;20032;-67
2022/08/21 04:16:42;;;;;;;10.00;6.40;;;15.00;82.60;;;;;;5066887;28;20476;-67
2022/08/21 04:19:09;;;;;;;10.90;6.68;;;15.00;82.50;;;;;;5070284;28;20032;-68
2022/08/21 04:21:37;;;;;;;31.90;7.97;;;15.00;82.50;;;;;;5068517;28;20036;-67
2022/08/21 04:24:04;;;;;;;27.35;9.50;;;15.00;82.70;;;;;;5065231;28;20032;-67
2022/08/21 04:26:31;;;;;;;18.48;9.60;;;15.00;83.10;;;;;;5065883;28;20016;-68
2022/08/21 04:28:58;;;;;;;17.55;8.73;;;15.00;83.20;;;;;;5063467;28;20021;-68
2022/08/21 04:31:25;;;;;;;14.10;8.02;;;14.90;82.80;;;;;;5064366;28;20109;-68
2022/08/21 04:33:52;;;;;;;31.02;9.93;;;14.90;82.20;;;;;;5067585;28;20063;-68
2022/08/21 04:36:18;;;;;;;18.70;7.28;;;14.90;82.60;;;;;;5064976;28;20629;-67
2022/08/21 04:38:45;;;;;;;11.32;7.00;;;14.90;82.90;;;;;;5064610;28;20017;-68
2022/08/21 04:41:12;;;;;;;11.25;7.18;;;14.90;82.50;;;;;;5062257;28;20071;-68
2022/08/21 04:43:39;;;;;;;12.80;7.35;;;14.90;81.80;;;;;;5066731;28;20021;-67
2022/08/21 04:46:06;;;;;;;10.70;5.97;;;14.80;82.00;;;;;;5065593;28;20023;-67
2022/08/21 04:48:33;;;;;;;8.88;5.78;;;14.80;81.00;;;;;;5065921;28;20029;-67
2022/08/21 04:51:19;;;;;;;11.85;6.30;;;14.80;81.10;;;;;;5063005;28;20048;-67
2022/08/21 04:54:10;;;;;;;9.43;6.75;;;14.70;80.90;;;;;;5067741;28;20511;-68
2022/08/21 04:56:42;;;;;;;8.82;5.32;;;14.70;80.90;;;;;;5064808;28;20021;-68
2022/08/21 04:59:22;;;;;;;10.05;5.53;;;14.70;80.90;;;;;;5065832;28;20021;-68
2022/08/21 05:01:50;;;;;;;9.50;5.03;;;14.70;81.00;;;;;;5065686;28;20085;-68
2022/08/21 05:04:23;;;;;;;12.13;5.55;;;14.70;81.00;;;;;;5062504;28;20024;-68
2022/08/21 05:06:52;;;;;;;10.70;4.68;;;14.70;81.10;;;;;;5068295;28;20524;-68
2022/08/21 05:09:19;;;;;;;16.77;5.82;;;14.70;81.20;;;;;;5066142;28;20070;-67
2022/08/21 05:11:45;;;;;;;10.95;4.57;;;14.70;81.20;;;;;;5063810;28;20047;-67
2022/08/21 05:14:13;;;;;;;16.27;4.60;;;14.70;81.80;;;;;;5064621;28;20021;-68
2022/08/21 05:16:41;;;;;;;20.20;6.55;;;14.70;82.00;;;;;;5067614;28;20021;-68
2022/08/21 05:19:08;;;;;;;20.88;11.20;;;14.60;82.70;;;;;;5063871;28;20027;-68
2022/08/21 05:21:38;;;;;;;23.30;12.85;;;14.60;83.40;;;;;;5063289;28;20399;-67
2022/08/21 05:24:05;;;;;;;25.83;8.40;;;14.60;83.80;;;;;;5064885;28;20052;-67
2022/08/21 05:26:31;;;;;;;11.15;5.57;;;14.70;83.90;;;;;;5066890;28;20098;-68
2022/08/21 05:28:58;;;;;;;8.15;5.03;;;14.70;83.60;;;;;;5066485;28;20360;-68
2022/08/21 05:31:25;;;;;;;9.50;4.40;;;14.70;83.30;;;;;;5063588;28;21222;-68
2022/08/21 05:33:51;;;;;;;11.73;3.95;;;14.70;83.00;;;;;;5067698;28;20553;-67
2022/08/21 05:36:18;;;;;;;11.80;3.90;;;14.70;82.70;;;;;;5064258;28;20025;-67
2022/08/21 05:38:45;;;;;;;6.88;3.47;;;14.70;82.30;;;;;;5064319;28;20017;-67
2022/08/21 05:41:12;;;;;;;11.98;3.42;;;14.70;81.90;;;;;;5063106;28;20430;-67
2022/08/21 05:43:38;;;;;;;7.63;4.40;;;14.70;81.50;;;;;;5059591;28;20029;-68
2022/08/21 05:46:06;;;;;;;9.25;3.42;;;14.70;81.30;;;;;;5064221;28;20023;-68
2022/08/21 05:48:34;;;;;;;7.78;3.10;;;14.60;80.90;;;;;;5066490;28;20043;-68
2022/08/21 05:51:07;;;;;;;9.88;4.15;;;14.70;80.70;;;;;;5067569;28;20032;-67
2022/08/21 05:53:35;;;;;;;9.10;3.53;;;14.60;80.50;;;;;;5065669;28;20115;-68
2022/08/21 05:56:03;;;;;;;8.02;3.03;;;14.60;80.40;;;;;;5061500;28;20016;-68
2022/08/21 05:58:32;;;;;;;9.52;5.55;;;14.60;80.30;;;;;;5064804;28;20553;-68
2022/08/21 06:01:00;;;;;;;36.10;23.13;;;14.60;80.30;;;;;;5067106;28;20028;-70
2022/08/21 06:03:31;;;;;;;23.52;13.32;;;14.60;80.30;;;;;;5064485;28;20024;-69
2022/08/21 06:05:58;;;;;;;13.75;7.85;;;14.60;80.30;;;;;;5066657;28;20041;-70
2022/08/21 06:08:25;;;;;;;16.92;6.88;;;14.60;80.30;;;;;;5067140;28;20027;-70
2022/08/21 06:10:53;;;;;;;14.20;6.07;;;14.60;80.30;;;;;;5065849;28;20033;-69
2022/08/21 06:13:21;;;;;;;10.25;5.13;;;14.60;80.30;;;;;;5066813;28;20039;-70
2022/08/21 06:15:48;;;;;;;27.10;9.63;;;14.60;80.30;;;;;;5065852;28;20059;-70
2022/08/21 06:18:16;;;;;;;26.13;9.18;;;14.60;81.00;;;;;;5065064;28;20038;-70
2022/08/21 06:20:44;;;;;;;22.42;9.63;;;14.60;81.40;;;;;;5062646;28;20048;-70
2022/08/21 06:23:10;;;;;;;27.67;6.38;;;14.60;81.90;;;;;;5066262;28;20063;-73
2022/08/21 06:25:37;;;;;;;17.02;5.47;;;14.60;82.00;;;;;;5063835;28;20372;-68
2022/08/21 06:28:09;;;;;;;16.90;5.53;;;14.60;81.80;;;;;;5065260;28;20036;-68
2022/08/21 06:30:37;;;;;;;22.45;5.60;;;14.60;81.70;;;;;;5062540;28;20050;-68
2022/08/21 06:33:04;;;;;;;20.98;5.78;;;14.60;81.60;;;;;;5063732;28;20032;-68
2022/08/21 06:35:30;;;;;;;20.50;4.53;;;14.60;81.90;;;;;;5065056;28;20494;-68
2022/08/21 06:37:58;;;;;;;19.80;6.30;;;14.60;82.00;;;;;;5062966;28;20138;-68
2022/08/21 06:40:28;;;;;;;9.95;3.70;;;14.60;82.00;;;;;;5068742;28;20116;-68
2022/08/21 06:42:54;;;;;;;12.95;5.07;;;14.60;82.10;;;;;;5065509;28;20029;-68
2022/08/21 06:45:22;;;;;;;12.32;4.47;;;14.60;81.90;;;;;;5063800;28;20439;-68
2022/08/21 06:47:48;;;;;;;11.57;4.13;;;14.60;81.90;;;;;;5063336;28;20412;-68
2022/08/21 06:50:15;;;;;;;12.18;4.53;;;14.60;81.90;;;;;;5066649;28;20025;-68
2022/08/21 06:52:41;;;;;;;9.50;3.60;;;14.60;81.80;;;;;;5065870;28;20040;-68
2022/08/21 06:55:09;;;;;;;13.13;4.43;;;14.60;81.80;;;;;;5062431;28;20387;-68
2022/08/21 06:57:36;;;;;;;19.05;5.82;;;14.70;81.80;;;;;;5062928;28;20019;-68
2022/08/21 07:00:06;;;;;;;13.30;4.47;;;14.70;81.70;;;;;;5065533;28;20138;-68
2022/08/21 07:02:36;;;;;;;9.40;4.07;;;14.70;81.50;;;;;;5068098;28;20480;-68
2022/08/21 07:05:03;;;;;;;12.48;5.18;;;14.70;81.30;;;;;;5065325;28;20476;-68
2022/08/21 07:07:29;;;;;;;11.68;4.93;;;14.70;81.20;;;;;;5067752;28;20032;-68
2022/08/21 07:09:56;;;;;;;16.17;4.07;;;14.70;81.10;;;;;;5067275;28;20017;-68
2022/08/21 07:12:22;;;;;;;8.05;4.13;;;14.80;81.10;;;;;;5067829;28;20036;-68
2022/08/21 07:14:49;;;;;;;16.02;4.00;;;14.80;81.20;;;;;;5066663;28;20480;-68
2022/08/21 07:17:15;;;;;;;9.60;3.15;;;14.80;81.20;;;;;;5069837;28;20009;-68
2022/08/21 07:19:41;;;;;;;8.70;3.58;;;14.80;81.20;;;;;;5070347;28;20051;-67
2022/08/21 07:22:08;;;;;;;16.42;3.50;;;14.90;81.20;;;;;;5064953;28;20048;-68
2022/08/21 07:24:35;;;;;;;11.52;4.72;;;14.90;81.20;;;;;;5068706;28;20024;-68
2022/08/21 07:27:01;;;;;;;13.10;3.78;;;14.90;81.10;;;;;;5065748;28;20079;-68
2022/08/21 07:29:28;;;;;;;14.95;3.28;;;14.90;80.90;;;;;;5071994;28;20369;-68
2022/08/21 07:31:54;;;;;;;10.43;3.42;;;15.00;80.60;;;;;;5068721;28;20063;-68
2022/08/21 07:34:21;;;;;;;12.27;2.97;;;15.00;80.50;;;;;;5065482;28;20024;-68
2022/08/21 07:36:47;;;;;;;8.32;3.60;;;15.00;80.40;;;;;;5060871;28;20020;-68
2022/08/21 07:39:14;;;;;;;12.88;2.55;;;15.10;80.40;;;;;;5070996;28;20038;-68
2022/08/21 07:41:40;;;;;;;7.45;2.75;;;15.10;80.30;;;;;;5067722;28;20392;-68
2022/08/21 07:44:07;;;;;;;11.13;2.50;;;15.10;80.10;;;;;;5064275;28;20016;-68
2022/08/21 07:46:33;;;;;;;8.13;2.05;;;15.10;79.90;;;;;;5064004;28;20025;-68
2022/08/21 07:49:00;;;;;;;8.43;2.50;;;15.10;79.80;;;;;;5072345;28;20099;-68
2022/08/21 07:51:28;;;;;;;10.18;2.35;;;15.20;79.50;;;;;;5068551;28;20451;-67
2022/08/21 07:53:57;;;;;;;10.43;1.92;;;15.20;79.40;;;;;;5064950;28;20068;-68
2022/08/21 07:56:23;;;;;;;5.50;1.73;;;15.30;79.30;;;;;;5066702;28;20028;-68
2022/08/21 07:58:50;;;;;;;7.18;2.20;;;15.30;79.30;;;;;;5069630;28;20441;-68
2022/08/21 08:01:17;;;;;;;6.50;1.80;;;15.40;79.70;;;;;;5069849;28;20407;-68
2022/08/21 08:03:44;;;;;;;4.95;2.67;;;15.40;78.80;;;;;;5064290;28;20471;-68
2022/08/21 08:06:12;;;;;;;6.63;1.88;;;15.40;78.50;;;;;;5062027;28;20465;-68
2022/08/21 08:08:40;;;;;;;6.78;2.85;;;15.40;78.50;;;;;;5070416;28;20108;-68
2022/08/21 08:11:10;;;;;;;16.83;1.70;;;15.50;78.50;;;;;;5068192;28;20053;-68
2022/08/21 08:13:44;;;;;;;5.00;1.90;;;15.50;78.50;;;;;;5066215;28;20047;-68
2022/08/21 08:16:11;;;;;;;4.03;1.57;;;15.60;78.40;;;;;;5066732;28;20099;-68
2022/08/21 08:18:38;;;;;;;5.60;1.98;;;15.60;78.40;;;;;;5062751;28;20029;-68
2022/08/21 08:21:05;;;;;;;7.25;1.65;;;15.70;78.40;;;;;;5068854;28;20132;-67
2022/08/21 08:23:32;;;;;;;4.57;2.50;;;15.70;78.40;;;;;;5067391;28;20071;-68
2022/08/21 08:26:00;;;;;;;7.47;1.75;;;15.80;78.40;;;;;;5064811;28;20017;-68
2022/08/21 08:28:27;;;;;;;5.32;1.10;;;15.80;78.10;;;;;;5064201;28;20514;-68
2022/08/21 08:30:53;;;;;;;5.75;1.50;;;15.90;77.90;;;;;;5070498;28;20012;-68
2022/08/21 08:33:20;;;;;;;15.95;3.72;;;15.90;77.80;;;;;;5067641;28;20434;-68
2022/08/21 08:35:48;;;;;;;4.28;1.90;;;15.90;77.50;;;;;;5066356;28;20017;-67
2022/08/21 08:38:18;;;;;;;3.33;1.20;;;16.00;77.40;;;;;;5065827;28;20025;-68
2022/08/21 08:40:48;;;;;;;7.45;1.70;;;16.00;77.10;;;;;;5071582;28;20012;-68
2022/08/21 08:43:15;;;;;;;5.68;1.50;;;16.00;77.10;;;;;;5067143;28;20016;-67
2022/08/21 08:45:46;;;;;;;8.27;2.03;;;16.10;77.10;;;;;;5068510;28;20016;-67
2022/08/21 08:48:18;;;;;;;4.32;1.10;;;16.10;77.10;;;;;;5067417;28;20031;-68
2022/08/21 08:50:58;;;;;;;3.13;2.00;;;16.20;76.80;;;;;;5066630;28;20032;-67
2022/08/21 08:53:41;;;;;;;4.50;1.40;;;16.20;76.40;;;;;;5063160;28;20079;-68
2022/08/21 08:56:08;;;;;;;3.85;1.10;;;16.30;75.90;;;;;;5067254;28;20027;-68
2022/08/21 08:58:40;;;;;;;2.95;1.35;;;16.30;75.60;;;;;;5069239;28;20066;-68
2022/08/21 09:01:15;;;;;;;2.85;1.73;;;16.30;75.40;;;;;;5064370;28;20016;-67
2022/08/21 09:03:42;;;;;;;1.92;0.98;;;16.40;75.10;;;;;;5062063;28;20518;-68
2022/08/21 09:06:19;;;;;;;5.93;1.67;;;16.40;75.00;;;;;;5071322;28;20024;-67
2022/08/21 09:09:13;;;;;;;5.63;1.98;;;16.40;75.00;;;;;;5068844;28;20028;-67
2022/08/21 09:12:09;;;;;;;7.13;2.28;;;16.50;75.70;;;;;;5063791;28;20029;-67
2022/08/21 09:15:06;;;;;;;4.93;1.45;;;16.60;75.90;;;;;;5062846;28;20048;-68
2022/08/21 09:17:59;;;;;;;10.02;3.35;;;16.70;75.80;;;;;;5067941;28;20041;-68
2022/08/21 09:20:31;;;;;;;7.65;1.58;;;16.80;75.70;;;;;;5039714;28;20403;-69
2022/08/21 09:23:34;;;;;;;6.00;2.22;;;16.80;75.40;;;;;;5064971;28;20104;-68
2022/08/21 09:26:24;;;;;;;9.05;3.13;;;16.80;74.80;;;;;;5066677;28;20021;-68
2022/08/21 09:28:54;;;;;;;5.20;2.15;;;16.80;74.60;;;;;;5068405;28;20032;-68
2022/08/21 09:31:27;;;;;;;9.35;3.15;;;16.80;74.40;;;;;;5063724;28;20026;-68
2022/08/21 09:34:08;;;;;;;20.33;2.85;;;16.90;74.50;;;;;;5062504;28;20487;-69
2022/08/21 09:36:50;;;;;;;5.15;2.70;;;16.90;74.40;;;;;;5067482;28;20153;-69
2022/08/21 09:39:37;;;;;;;3.78;1.38;;;16.90;74.80;;;;;;5069935;28;20039;-69
2022/08/21 09:42:07;;;;;;;8.23;2.25;;;17.00;74.80;;;;;;5065798;28;20021;-68
2022/08/21 09:44:40;;;;;;;11.55;2.10;;;17.10;74.80;;;;;;5062494;28;20506;-69
2022/08/21 09:47:07;;;;;;;7.43;2.35;;;17.10;74.80;;;;;;5067980;28;20028;-68
2022/08/21 09:49:37;;;;;;;1.45;1.10;;;17.10;74.70;;;;;;5066947;28;20375;-69
2022/08/21 09:52:17;;;;;;;5.03;1.70;;;17.20;74.90;;;;;;5068313;28;20036;-69
2022/08/21 09:54:46;;;;;;;5.78;1.63;;;17.20;75.00;;;;;;5063011;28;20032;-69
2022/08/21 09:57:38;;;;;;;8.50;2.50;;;17.20;74.90;;;;;;5067090;28;20024;-69
2022/08/21 10:00:29;;;;;;;6.22;2.58;;;17.30;75.10;;;;;;5070083;28;20142;-69
2022/08/21 10:03:09;;;;;;;10.38;2.00;;;17.40;75.00;;;;;;5069081;28;20028;-69
2022/08/21 10:05:38;;;;;;;5.38;1.75;;;17.40;74.60;;;;;;5066308;28;20032;-69
2022/08/21 10:08:05;;;;;;;5.25;1.75;;;17.40;74.30;;;;;;5064458;28;20467;-69
2022/08/21 10:10:37;;;;;;;5.07;2.20;;;17.50;73.90;;;;;;5064396;28;20493;-69
2022/08/21 10:13:19;;;;;;;4.22;2.03;;;17.50;73.10;;;;;;5066214;28;20036;-69
2022/08/21 10:16:01;;;;;;;5.85;2.55;;;17.50;72.70;;;;;;5060471;28;20016;-69
2022/08/21 10:19:09;;;;;;;9.82;2.53;;;17.50;72.70;;;;;;5065261;28;20136;-69
2022/08/21 10:21:48;;;;;;;11.35;3.22;;;17.60;72.60;;;;;;5023449;28;20064;-69
2022/08/21 10:24:31;;;;;;;9.10;2.65;;;17.60;73.00;;;;;;5067760;28;20494;-69
2022/08/21 10:27:43;;;;;;;8.07;2.40;;;17.70;73.30;;;;;;5065710;28;20040;-69
2022/08/21 10:30:20;;;;;;;3.40;1.02;;;17.80;73.30;;;;;;5063644;28;20036;-69
2022/08/21 10:33:22;;;;;;;5.32;1.17;;;17.80;72.80;;;;;;5064766;28;20093;-68
2022/08/21 10:36:12;;;;;;;2.65;1.33;;;17.90;72.70;;;;;;5031111;28;20040;-69
2022/08/21 10:38:48;;;;;;;2.65;1.70;;;18.00;72.70;;;;;;5063670;28;20033;-69
2022/08/21 10:41:47;;;;;;;3.97;1.30;;;18.00;72.50;;;;;;5062604;28;20016;-68
2022/08/21 10:44:37;;;;;;;1.80;1.00;;;18.00;72.30;;;;;;5064845;28;20024;-68
2022/08/21 10:47:27;;;;;;;3.30;1.20;;;18.10;72.30;;;;;;5068821;28;20020;-69
2022/08/21 10:50:05;;;;;;;7.15;1.80;;;18.10;72.40;;;;;;5063152;28;20032;-69
2022/08/21 10:52:43;;;;;;;6.22;1.75;;;18.20;72.60;;;;;;5068161;28;20033;-68
2022/08/21 10:55:19;;;;;;;7.22;1.63;;;18.20;72.80;;;;;;5063916;28;20067;-68
2022/08/21 10:57:45;;;;;;;6.90;1.60;;;18.30;72.70;;;;;;5065781;28;20020;-69
2022/08/21 11:00:27;;;;;;;6.95;1.35;;;18.30;72.80;;;;;;5067310;28;20029;-69
2022/08/21 11:03:01;;;;;;;7.72;2.00;;;18.30;71.60;;;;;;5061723;28;20087;-69
2022/08/21 11:05:50;;;;;;;3.30;1.42;;;18.30;71.40;;;;;;5066753;28;20032;-69
2022/08/21 11:08:42;;;;;;;11.05;2.35;;;18.30;71.70;;;;;;5066391;28;20077;-69
2022/08/21 11:11:17;;;;;;;4.50;1.08;;;18.30;71.20;;;;;;5054970;28;20098;-69
2022/08/21 11:13:48;;;;;;;4.75;1.15;;;18.40;71.40;;;;;;5063682;28;20040;-69
2022/08/21 11:16:39;;;;;;;5.78;1.73;;;18.40;70.60;;;;;;5064746;28;20025;-69
2022/08/21 11:19:45;;;;;;;5.50;2.45;;;18.50;71.00;;;;;;5064822;28;20383;-69
2022/08/21 11:22:34;;;;;;;6.53;1.50;;;18.50;71.10;;;;;;5063722;28;20036;-69
2022/08/21 11:25:18;;;;;;;9.02;3.85;;;18.50;70.60;;;;;;5066824;28;21235;-69
2022/08/21 11:27:55;;;;;;;5.53;2.25;;;18.60;70.80;;;;;;5062252;28;20024;-69
2022/08/21 11:30:24;;;;;;;5.45;1.23;;;18.60;71.00;;;;;;5063656;28;20111;-68
2022/08/21 11:33:00;;;;;;;6.50;1.55;;;18.70;70.20;;;;;;5064348;28;20040;-69
2022/08/21 11:36:04;;;;;;;7.00;2.45;;;18.70;69.30;;;;;;5063911;28;20039;-69
2022/08/21 11:38:47;;;;;;;5.00;1.25;;;18.70;68.80;;;;;;5033945;28;20098;-69
2022/08/21 11:41:24;;;;;;;6.47;1.40;;;18.70;68.80;;;;;;5063918;28;20029;-66
2022/08/21 11:44:19;;;;;;;9.50;1.88;;;18.70;68.50;;;;;;5064124;28;20094;-68
2022/08/21 11:46:58;;;;;;;5.22;1.10;;;18.70;68.80;;;;;;5057663;28;20495;-68
2022/08/21 11:49:47;;;;;;;13.45;2.00;;;18.70;68.30;;;;;;5067961;28;20031;-69
2022/08/21 11:52:43;;;;;;;4.70;1.20;;;18.80;67.90;;;;;;5069519;28;20038;-68
2022/08/21 11:55:31;;;;;;;7.03;1.65;;;18.90;67.90;;;;;;5066237;28;20660;-69
2022/08/21 11:58:04;;;;;;;6.35;1.58;;;18.90;68.10;;;;;;5064387;28;20018;-68
2022/08/21 12:00:46;;;;;;;4.10;1.60;;;19.00;67.70;;;;;;5069982;28;20450;-69
2022/08/21 12:03:31;;;;;;;5.57;2.13;;;19.00;67.20;;;;;;5067132;28;20533;-69
2022/08/21 12:06:04;;;;;;;4.43;1.80;;;19.00;67.20;;;;;;5066900;28;20333;-69
2022/08/21 12:08:34;;;;;;;4.65;1.40;;;19.00;67.20;;;;;;5067438;28;20060;-68
2022/08/21 12:11:25;;;;;;;12.13;3.13;;;19.00;67.00;;;;;;5061675;28;20013;-69
2022/08/21 12:13:58;;;;;;;8.43;2.55;;;19.00;66.50;;;;;;5064884;28;20029;-69
2022/08/21 12:16:34;;;;;;;4.82;2.17;;;19.10;66.40;;;;;;5062914;28;20036;-69
2022/08/21 12:19:13;;;;;;;6.60;2.42;;;19.10;66.70;;;;;;5069991;28;20700;-68
2022/08/21 12:21:58;;;;;;;5.45;2.15;;;19.10;67.20;;;;;;5065029;28;20047;-68
2022/08/21 12:24:27;;;;;;;3.42;1.85;;;19.10;67.40;;;;;;5068046;28;20491;-69
2022/08/21 12:26:58;;;;;;;5.85;2.58;;;19.10;67.70;;;;;;5066942;28;20507;-69
2022/08/21 12:29:31;;;;;;;9.35;3.30;;;19.10;68.00;;;;;;5065715;28;20025;-69
2022/08/21 12:32:18;;;;;;;5.93;2.10;;;19.10;67.60;;;;;;5063287;28;20017;-69
2022/08/21 12:34:52;;;;;;;9.15;1.90;;;19.10;67.10;;;;;;5067274;28;20137;-69
2022/08/21 12:37:29;;;;;;;5.38;1.88;;;19.10;66.60;;;;;;5064476;28;20361;-69
2022/08/21 12:39:59;;;;;;;14.10;2.72;;;19.20;66.70;;;;;;5066886;28;20029;-69
2022/08/21 12:42:42;;;;;;;7.47;2.30;;;19.20;66.70;;;;;;5062651;28;20021;-69
2022/08/21 12:45:32;;;;;;;3.22;1.50;;;19.20;66.90;;;;;;5064561;28;20036;-69
2022/08/21 12:47:59;;;;;;;6.82;1.73;;;19.20;67.40;;;;;;5069907;28;20028;-68
2022/08/21 12:50:43;;;;;;;10.18;2.55;;;19.30;67.30;;;;;;5068342;28;20541;-68
2022/08/21 12:53:33;;;;;;;6.72;2.50;;;19.30;68.20;;;;;;5066353;28;20124;-69
2022/08/21 12:56:03;;;;;;;13.45;2.50;;;19.30;67.80;;;;;;5066423;28;20028;-69
2022/08/21 12:58:31;;;;;;;10.90;3.38;;;19.40;68.40;;;;;;5064984;28;20405;-68
2022/08/21 13:01:14;;;;;;;17.75;4.13;;;19.40;69.20;;;;;;5066630;28;20024;-69
2022/08/21 13:03:41;;;;;;;7.45;3.08;;;19.40;69.80;;;;;;5063664;28;20016;-68